Latest Weather Observations for Essendon Airport

IDV60801

Issued at 1:02 am EDT Saturday 7 March 2015 (issued every 30 minutes, with the page automatically refreshed every 10 minutes)

About weather observations | Map of weather stations | Latest weather observations for VIC | Other Formats
Station Details ID: 086038 Name: ESSENDON AIRPORT Lat: -37.73 Lon: 144.91 Height: 78.4 m
Data from the previous 72 hours. | See also: Recent months at Essendon Airport
Date/Time
EDT
Temp
°C
App
Temp
°C
Dew
Point
Rel
Hum
%
Delta-T
°C
Wind Press
QNH
hPa
Press
MSL
hPa
Rain
since 9 am
mm
Dir
 
Spd
km/h
Gust
km/h
Spd
kts
Gust
kts
07/01:00am 15.3 14.4 13.8 91 0.8 W 11 13 6 7 1012.5 1012.4 0.8
07/12:30am 15.2 13.9 13.7 91 0.8 W 13 17 7 9 1012.4 1012.3 0.8
07/12:00am 15.5 13.6 14.2 92 0.7 W 17 20 9 11 1012.6 1012.5 0.8
 
Date/Time
EDT
Temp
°C
App
Temp
°C
Dew
Point
Rel
Hum
%
Delta-T
°C
Wind Press
QNH
hPa
Press
MSL
hPa
Rain
since 9 am
mm
Dir
 
Spd
km/h
Gust
km/h
Spd
kts
Gust
kts
06/11:53pm 15.4 13.1 14.1 92 0.7 WSW 19 24 10 13 1012.6 1012.5 0.8
06/11:30pm 15.9 14.6 14.8 93 0.6 SW 15 26 8 14 1012.6 1012.5 0.8
06/11:16pm 16.2 16.2 15.1 93 0.6 W 9 13 5 7 1012.6 1012.5 0.8
06/11:00pm 16.1 16.0 15.0 93 0.6 W 9 9 5 5 1012.5 1012.4 0.8
06/10:30pm 16.1 16.0 15.0 93 0.6 WNW 9 13 5 7 1012.7 1012.6 0.8
06/10:06pm 16.1 16.0 15.0 93 0.6 WSW 9 11 5 6 1012.6 1012.5 0.6
06/10:00pm 16.1 16.1 15.1 94 0.6 SW 9 11 5 6 1012.6 1012.5 0.6
06/09:53pm 16.1 16.4 15.1 94 0.6 SW 7 9 4 5 1012.6 1012.5 0.6
06/09:30pm 15.5 16.9 14.4 93 0.6 CALM 0 0 0 0 1012.5 1012.4 0.6
06/09:16pm 15.8 17.3 14.7 93 0.6 CALM 0 0 0 0 1012.6 1012.5 0.6
06/09:00pm 16.0 16.8 14.9 93 0.6 WSW 4 7 2 4 1012.3 1012.2 0.6
06/08:39pm 16.0 16.3 14.9 93 0.6 SW 7 9 4 5 1012.5 1012.4 0.6
06/08:30pm 16.0 16.3 14.9 93 0.6 SSW 7 11 4 6 1012.5 1012.4 0.6
06/08:29pm 16.0 15.9 14.9 93 0.6 SSW 9 11 5 6 1012.4 1012.3 0.6
06/08:00pm 16.0 15.4 14.7 92 0.7 W 11 13 6 7 1012.1 1011.9 0.4
06/07:41pm 16.2 15.2 14.7 91 0.9 SSW 13 17 7 9 1011.8 1011.6 0.2
06/07:30pm 16.5 14.4 14.7 89 1.0 S 19 24 10 13 1011.7 1011.5 0.0
06/07:00pm 17.5 14.8 13.6 78 2.2 S 20 28 11 15 1011.6 1011.4 0.0
06/06:30pm 17.6 15.4 14.3 81 1.9 SSW 19 26 10 14 1011.3 1011.1 0.0
06/06:00pm 18.1 15.4 13.6 75 2.6 S 20 32 11 17 1011.1 1010.9 0.0
06/05:30pm 19.1 16.2 13.9 72 3.0 S 22 30 12 16 1010.9 1010.7 0.0
06/05:00pm 18.9 15.4 13.3 70 3.2 S 24 35 13 19 1010.7 1010.5 0.0
06/04:30pm 19.1 15.8 13.9 72 3.0 S 24 32 13 17 1010.7 1010.5 0.0
06/04:00pm 19.6 16.1 13.3 67 3.6 S 24 32 13 17 1010.7 1010.5 0.0
06/03:30pm 19.3 16.6 14.6 74 2.7 SSW 22 32 12 17 1010.9 1010.7 0.0
06/03:00pm 18.8 15.4 13.6 72 3.0 S 24 32 13 17 1010.9 1010.7 0.0
06/02:30pm 19.4 16.3 14.4 73 2.9 S 24 35 13 19 1010.9 1010.7 0.0
06/02:00pm 19.6 14.1 13.5 68 3.5 SW 35 46 19 25 1010.9 1010.7 0.0
06/01:30pm 20.7 15.3 12.9 61 4.4 WSW 33 43 18 23 1010.8 1010.6 0.0
06/01:02pm 20.8 15.0 12.8 60 4.6 WSW 35 54 19 29 1010.9 1010.7 0.0
06/01:00pm 20.4 14.6 12.6 61 4.4 WSW 35 50 19 27 1010.9 1010.7 0.0
06/12:30pm 19.7 13.8 12.5 63 4.1 SW 35 48 19 26 1011.1 1010.9 0.0
06/12:00pm 19.2 13.5 12.9 67 3.6 WSW 35 44 19 24 1011.4 1011.2 0.0
06/11:30am 18.4 13.9 12.6 69 3.2 WSW 28 43 15 23 1011.5 1011.3 0.0
06/11:10am 17.8 11.9 12.5 71 3.0 WSW 35 54 19 29 1011.6 1011.4 0.0
06/11:00am 17.6 10.9 12.3 71 2.9 WSW 39 50 21 27 1011.5 1011.3 0.0
06/10:30am 17.6 11.3 12.3 71 2.9 WSW 37 48 20 26 1011.1 1010.9 0.0
06/10:00am 17.1 11.0 11.8 71 2.9 WSW 35 54 19 29 1011.2 1011.0 0.0
06/09:30am 16.4 10.5 11.3 72 2.8 WSW 33 46 18 25 1011.1 1010.9 0.0
06/09:00am 15.7 9.7 10.9 73 2.6 W 33 44 18 24 1011.1 1010.9 0.0
06/08:30am 15.2 10.0 10.2 72 2.6 W 28 39 15 21 1010.9 1010.7 0.0
06/08:00am 15.0 10.4 9.6 70 2.8 W 24 39 13 21 1010.8 1010.6 0.0
06/07:30am 15.0 9.2 9.4 69 2.9 W 30 43 16 23 1010.5 1010.3 0.0
06/07:00am 14.7 9.9 8.9 68 3.0 W 24 32 13 17 1010.3 1010.1 0.0
06/06:30am 14.6 9.3 8.5 67 3.1 W 26 35 14 19 1010.3 1010.1 0.0
06/06:00am 14.5 8.8 8.5 67 3.0 W 28 41 15 22 1010.6 1010.4 0.0
06/05:30am 14.3 8.9 8.0 66 3.1 W 26 37 14 20 1010.8 1010.6 0.0
06/05:00am 14.3 8.9 8.0 66 3.2 W 26 35 14 19 1010.8 1010.6 0.0
06/04:30am 14.2 8.8 7.9 66 3.1 W 26 35 14 19 1011.3 1011.1 0.0
06/04:00am 14.3 8.9 8.0 66 3.1 W 26 33 14 18 1011.8 1011.6 0.0
06/03:30am 14.1 10.3 7.4 64 3.3 W 17 24 9 13 1012.3 1012.2 0.0
06/03:00am 13.6 9.8 7.4 66 3.0 WNW 17 24 9 13 1012.7 1012.6 0.0
06/02:30am 13.0 9.5 7.0 67 2.9 WNW 15 20 8 11 1013.2 1013.1 0.0
06/02:00am 13.0 9.0 6.6 65 3.1 WNW 17 24 9 13 1013.4 1013.3 0.0
06/01:30am 13.2 8.6 6.3 63 3.3 WNW 20 30 11 16 1013.7 1013.6 0.0
06/01:00am 13.6 9.5 6.0 60 3.6 W 17 22 9 12 1014.0 1013.9 0.0
06/12:30am 13.3 8.8 5.9 61 3.5 WNW 19 28 10 15 1014.1 1014.0 0.0
06/12:00am 13.7 9.2 6.1 60 3.6 WNW 19 26 10 14 1014.4 1014.3 0.0
 
Date/Time
EDT
Temp
°C
App
Temp
°C
Dew
Point
Rel
Hum
%
Delta-T
°C
Wind Press
QNH
hPa
Press
MSL
hPa
Rain
since 9 am
mm
Dir
 
Spd
km/h
Gust
km/h
Spd
kts
Gust
kts
05/11:30pm 13.8 9.7 6.2 60 3.6 WNW 17 24 9 13 1014.6 1014.5 0.0
05/11:00pm 13.6 9.0 5.7 59 3.7 W 19 22 10 12 1014.8 1014.7 0.0
05/10:30pm 13.6 9.8 5.7 59 3.7 W 15 24 8 13 1015.3 1015.1 0.0
05/10:00pm 14.1 9.9 5.5 56 4.1 W 17 24 9 13 1015.5 1015.3 0.0
05/09:30pm 14.5 9.6 5.3 54 4.4 WSW 20 28 11 15 1015.6 1015.4 0.0
05/09:00pm 14.8 9.1 5.1 52 4.6 WSW 24 32 13 17 1015.3 1015.1 0.0
05/08:30pm 15.4 8.3 5.6 52 4.7 WSW 32 43 17 23 1015.3 1015.1 0.0
05/08:00pm 16.0 9.1 4.7 47 5.3 WSW 30 39 16 21 1015.2 1015.0 0.0
05/07:30pm 16.5 9.5 4.2 44 5.8 WSW 30 41 16 22 1015.4 1015.2 0.0
05/07:00pm 17.3 9.8 4.3 42 6.1 WSW 33 41 18 22 1015.4 1015.2 0.0
05/06:30pm 18.3 12.0 3.8 38 6.8 SW 26 37 14 20 1015.2 1015.0 0.0
05/06:00pm 17.2 13.2 8.1 55 4.6 S 19 30 10 16 1015.4 1015.2 0.0
05/05:30pm 17.3 12.3 7.9 54 4.8 S 24 32 13 17 1015.4 1015.2 0.0
05/05:00pm 17.7 12.8 8.3 54 4.8 SSE 24 35 13 19 1015.7 1015.5 0.0
05/04:30pm 18.2 13.5 7.6 50 5.4 S 22 33 12 18 1015.8 1015.6 0.0
05/04:00pm 19.0 14.4 8.1 49 5.6 S 22 33 12 18 1015.9 1015.7 0.0
05/03:30pm 18.1 13.1 6.3 46 5.8 S 22 33 12 18 1016.4 1016.2 0.0
05/03:00pm 18.0 13.3 5.9 45 5.9 SSW 20 30 11 16 1016.6 1016.4 0.0
05/02:30pm 19.2 14.3 6.7 44 6.3 SSW 22 35 12 19 1016.6 1016.4 0.0
05/02:00pm 18.6 12.5 6.4 45 6.1 S 28 43 15 23 1017.1 1016.9 0.0
05/01:30pm 17.9 11.1 5.2 43 6.1 SSW 30 39 16 21 1017.5 1017.3 0.0
05/01:00pm 18.0 11.1 4.6 41 6.4 SSW 30 39 16 21 1017.7 1017.5 0.0
05/12:30pm 17.7 10.4 5.6 45 5.9 SSW 33 48 18 26 1018.0 1017.8 0.0
05/12:00pm 17.1 8.8 4.1 42 6.1 SSW 37 48 20 26 1018.0 1017.8 0.0
05/11:43am 16.7 9.5 5.0 46 5.6 SSW 32 50 17 27 1018.0 1017.8 0.0
05/11:30am 16.6 9.3 5.3 47 5.4 SSW 33 46 18 25 1018.1 1017.9 0.0
05/11:00am 16.9 8.5 5.5 47 5.5 SSW 39 52 21 28 1018.0 1017.8 0.0
05/10:40am 16.1 7.6 5.1 48 5.2 SW 39 63 21 34 1017.7 1017.5 0.0
05/10:30am 16.0 7.5 5.3 49 5.1 SW 39 52 21 28 1017.4 1017.2 0.0
05/10:00am 15.5 6.9 4.5 48 5.1 SW 39 52 21 28 1017.2 1017.0 0.0
05/09:47am 14.9 7.1 5.1 52 4.6 SW 35 54 19 29 1017.1 1016.9 0.0
05/09:30am 14.3 6.5 5.1 54 4.3 SW 35 46 19 25 1016.9 1016.7 0.0
05/09:00am 13.4 6.1 5.3 58 3.8 SW 33 46 18 25 1016.5 1016.3 0.8
05/08:30am 12.3 7.0 5.2 62 3.3 SW 22 33 12 18 1016.2 1016.0 0.8
05/08:00am 11.5 5.8 4.9 64 3.0 SW 24 35 13 19 1015.6 1015.4 0.8
05/07:30am 10.7 5.3 4.6 66 2.8 SW 22 30 12 16 1014.9 1014.8 0.8
05/07:00am 10.8 4.7 4.7 66 2.8 SW 26 33 14 18 1014.5 1014.4 0.8
05/06:30am 11.0 5.0 5.3 68 2.6 SW 26 33 14 18 1014.4 1014.3 0.8
05/06:00am 11.3 5.0 5.8 69 2.6 WSW 28 39 15 21 1014.6 1014.5 0.8
05/05:30am 11.4 4.5 6.3 71 2.4 WSW 32 41 17 22 1013.9 1013.8 0.8
05/05:00am 11.8 3.6 6.5 70 2.5 WSW 39 48 21 26 1013.5 1013.4 0.8
05/04:30am 12.6 5.1 7.9 73 2.3 WSW 37 50 20 27 1012.8 1012.7 0.8
05/04:03am 13.1 4.7 9.5 79 1.8 WSW 44 67 24 36 1012.3 1012.2 0.8
05/04:00am 13.2 5.0 9.8 80 1.8 WSW 43 57 23 31 1012.1 1011.9 0.8
05/03:30am 14.0 7.4 11.2 83 1.5 WSW 37 57 20 31 1011.3 1011.1 0.8
05/03:01am 14.2 7.9 12.2 88 1.1 WSW 37 56 20 30 1010.8 1010.6 0.8
05/03:00am 14.1 7.3 12.1 88 1.1 WSW 39 56 21 30 1010.8 1010.6 0.8
05/02:44am 13.8 5.4 12.4 91 0.8 WSW 48 69 26 37 1010.7 1010.5 0.4
05/02:41am 14.2 6.3 12.6 90 0.9 WSW 46 59 25 32 1010.6 1010.4 0.2
05/02:30am 15.1 8.0 12.2 83 1.6 W 41 59 22 32 1010.3 1010.1 0.0
05/02:29am 15.4 8.3 12.3 82 1.7 W 41 59 22 32 1010.2 1010.0 0.0
05/02:00am 17.2 9.7 11.0 67 3.4 W 41 59 22 32 1010.1 1009.9 0.0
05/01:54am 17.6 11.5 10.5 63 3.8 W 33 59 18 32 1010.2 1010.0 0.0
05/01:30am 18.1 12.8 9.7 58 4.4 W 28 39 15 21 1010.0 1009.8 0.0
05/01:00am 17.8 12.5 9.9 60 4.2 WNW 28 37 15 20 1009.7 1009.5 0.0
05/12:30am 18.4 12.7 9.7 57 4.6 W 30 39 16 21 1009.9 1009.7 0.0
05/12:00am 18.8 13.3 9.3 54 5.0 W 28 35 15 19 1009.8 1009.6 0.0
 
Date/Time
EDT
Temp
°C
App
Temp
°C
Dew
Point
Rel
Hum
%
Delta-T
°C
Wind Press
QNH
hPa
Press
MSL
hPa
Rain
since 9 am
mm
Dir
 
Spd
km/h
Gust
km/h
Spd
kts
Gust
kts
04/11:30pm 18.7 15.0 10.0 57 4.6 W 20 37 11 20 1009.5 1009.3 0.0
04/11:00pm 18.9 14.7 9.9 56 4.8 W 22 33 12 18 1009.7 1009.5 0.0
04/10:30pm 19.8 14.5 10.0 53 5.3 W 28 39 15 21 1010.0 1009.8 0.0
04/10:00pm 19.8 16.0 9.7 52 5.4 W 20 26 11 14 1009.9 1009.7 0.0
04/09:30pm 20.4 15.8 9.6 50 5.8 W 24 32 13 17 1009.8 1009.6 0.0
04/09:00pm 20.7 16.5 9.9 50 5.8 WSW 22 28 12 15 1009.5 1009.3 0.0
04/08:30pm 20.9 17.1 9.8 49 6.0 WSW 20 26 11 14 1009.2 1009.0 0.0
04/08:00pm 21.5 17.4 10.0 48 6.3 WSW 22 32 12 17 1009.4 1009.2 0.0
04/07:30pm 22.6 18.9 10.1 45 6.8 WSW 20 26 11 14 1009.4 1009.2 0.0
04/07:00pm 23.6 19.6 10.3 43 7.4 SW 22 28 12 15 1009.6 1009.4 0.0
04/06:30pm 24.0 21.6 11.3 45 7.1 SW 15 24 8 13 1009.7 1009.5 0.0
04/06:00pm 23.7 22.0 11.1 45 7.1 SSW 11 20 6 11 1009.9 1009.7 0.0
04/05:30pm 25.1 21.4 10.2 39 8.3 SW 20 28 11 15 1010.1 1009.9 0.0
04/05:00pm 25.1 21.5 10.6 40 8.1 W 20 33 11 18 1010.2 1010.0 0.0
04/04:30pm 24.5 21.2 9.6 39 8.2 WSW 17 28 9 15 1010.4 1010.2 0.0
04/04:00pm 24.6 21.4 10.1 40 8.0 W 17 30 9 16 1010.8 1010.6 0.0
04/03:30pm 23.6 21.1 9.6 41 7.6 W 13 30 7 16 1011.3 1011.1 0.0
04/03:00pm 22.9 19.5 9.3 42 7.4 W 17 26 9 14 1012.0 1011.8 0.0
04/02:30pm 21.9 18.9 9.4 45 6.7 S 15 24 8 13 1012.5 1012.4 0.0
04/02:00pm 21.9 19.4 9.8 46 6.6 WSW 13 30 7 16 1013.0 1012.9 0.0
04/01:30pm 21.4 18.1 9.6 47 6.4 WSW 17 28 9 15 1013.5 1013.4 0.0
04/01:00pm 20.9 18.1 8.5 45 6.5 W 13 35 7 19 1013.8 1013.7 0.0
04/12:30pm 20.4 16.7 9.3 49 5.9 WSW 19 32 10 17 1014.7 1014.6 0.0
04/12:00pm 20.1 16.8 9.4 50 5.7 SW 17 24 9 13 1015.2 1015.0 0.0
04/11:30am 19.0 15.3 10.0 56 4.8 SW 20 32 11 17 1015.4 1015.2 0.0
04/11:00am 18.7 15.0 10.0 57 4.6 WSW 20 28 11 15 1015.6 1015.4 0.0
04/10:30am 17.6 14.3 9.5 59 4.3 WSW 17 26 9 14 1015.6 1015.4 0.0
04/10:00am 17.4 13.7 9.6 60 4.1 WSW 19 26 10 14 1015.6 1015.4 0.0
04/09:30am 17.3 14.2 10.2 63 3.8 WSW 17 24 9 13 1015.6 1015.4 0.0
04/09:00am 16.4 13.2 9.8 65 3.5 W 17 22 9 12 1015.8 1015.6 0.0
04/08:30am 15.4 13.3 11.2 76 2.3 W 13 15 7 8 1015.6 1015.4 0.0
04/08:00am 14.8 12.7 11.2 79 1.9 W 13 15 7 8 1015.4 1015.2 0.0
04/07:30am 14.4 12.8 11.7 84 1.5 W 11 15 6 8 1014.9 1014.8 0.0
04/07:00am 14.2 13.0 11.5 84 1.4 WSW 9 13 5 7 1014.7 1014.6 0.0
04/06:30am 14.0 13.2 11.2 83 1.5 WSW 6 7 3 4 1014.7 1014.6 0.0
04/06:00am 13.8 12.8 11.0 83 1.5 WSW 7 11 4 6 1014.7 1014.6 0.0
04/05:30am 14.0 13.0 11.0 82 1.6 WSW 7 9 4 5 1014.8 1014.7 0.0
04/05:00am 14.5 13.3 11.6 83 1.6 SW 9 13 5 7 1014.8 1014.7 0.0
04/04:30am 14.4 13.8 11.6 83 1.5 WSW 6 7 3 4 1014.8 1014.7 0.0
04/04:00am 14.7 13.9 11.8 83 1.6 W 7 9 4 5 1014.8 1014.7 0.0
04/03:30am 15.1 14.4 12.1 82 1.6 W 7 11 4 6 1014.9 1014.8 0.0
04/03:00am 15.1 14.1 12.2 83 1.6 WNW 9 11 5 6 1015.3 1015.1 0.0
04/02:30am 15.2 14.5 12.1 82 1.7 WNW 7 9 4 5 1015.8 1015.6 0.0
04/02:00am 15.3 14.0 12.4 83 1.6 W 11 11 6 6 1015.9 1015.7 0.0
04/01:30am 14.4 13.2 11.6 83 1.5 W 9 9 5 5 1015.9 1015.7 0.0

Other Formats:

Comma delimited format used in spreadsheet applications
http://www.bom.gov.au/fwo/IDV60801/IDV60801.95866.axf

JavaScript Object Notation format (JSON) in row-major order
http://www.bom.gov.au/fwo/IDV60801/IDV60801.95866.json